Main page
METAR-TAF:

METAR-TAF

Airports :

Muscatine Municipal Airport

Muscatine, Iowa, United States

latitude: 41-22N, longitude: 091-09W, elevation: 548 ft

Current weather observation

The report was made 26 minutes ago, at 16:15 UTC
Wind 6 mph from variable directions
Temperature 90°F
Humidity 63%
Pressure 29.99 in. Hg
Visibility: 10 miles
Clear sky

METAR: KMUT 071615Z AUTO VRB05KT 10SM CLR 32/24 A2999 RMK AO2

Time: 11:41 (16:41 UTC)


TAF: missing

Weather observations and forecasts of more than 4000 airports (METAR and TAF reports).

The available stations are represented by yellow and red dots on the map.

Hover mouse over dot to see the name of the station.

Then click to see weather observations and forecasts.

To change the map : click on the green buttons with a black cross to zoom in, on the green button with a dash to zoom out, or on the green arrows for adjacent maps.


METAR-TAF: